sensor_id;sensor_type;location;lat;lon;timestamp;temperature;humidity
55213;DHT22;41083;52.932;6.674;2023-05-07T00:02:21;12.60;99.90
55213;DHT22;41083;52.932;6.674;2023-05-07T00:04:48;12.60;99.90
55213;DHT22;41083;52.932;6.674;2023-05-07T00:07:14;12.50;99.90
55213;DHT22;41083;52.932;6.674;2023-05-07T00:09:40;12.60;99.90
55213;DHT22;41083;52.932;6.674;2023-05-07T00:12:06;12.50;99.90
55213;DHT22;41083;52.932;6.674;2023-05-07T00:14:31;12.60;99.90
55213;DHT22;41083;52.932;6.674;2023-05-07T00:16:57;12.50;99.90
55213;DHT22;41083;52.932;6.674;2023-05-07T00:19:22;12.50;99.90
55213;DHT22;41083;52.932;6.674;2023-05-07T00:21:48;12.60;99.90
55213;DHT22;41083;52.932;6.674;2023-05-07T00:24:14;12.50;99.90
55213;DHT22;41083;52.932;6.674;2023-05-07T00:26:41;12.50;99.90
55213;DHT22;41083;52.932;6.674;2023-05-07T00:29:06;12.50;99.90
55213;DHT22;41083;52.932;6.674;2023-05-07T00:31:32;12.40;99.90
55213;DHT22;41083;52.932;6.674;2023-05-07T00:33:57;12.40;99.90
55213;DHT22;41083;52.932;6.674;2023-05-07T00:36:23;12.40;99.90
55213;DHT22;41083;52.932;6.674;2023-05-07T00:38:49;12.40;99.90
55213;DHT22;41083;52.932;6.674;2023-05-07T00:41:15;12.40;99.90
55213;DHT22;41083;52.932;6.674;2023-05-07T00:43:40;12.40;99.90
55213;DHT22;41083;52.932;6.674;2023-05-07T00:46:06;12.30;99.90
55213;DHT22;41083;52.932;6.674;2023-05-07T00:48:32;12.30;99.90
55213;DHT22;41083;52.932;6.674;2023-05-07T00:50:57;12.30;99.90
55213;DHT22;41083;52.932;6.674;2023-05-07T00:53:23;12.30;99.90
55213;DHT22;41083;52.932;6.674;2023-05-07T00:55:49;12.30;99.90
55213;DHT22;41083;52.932;6.674;2023-05-07T00:58:14;12.30;99.90
55213;DHT22;41083;52.932;6.674;2023-05-07T01:00:40;12.30;99.90
55213;DHT22;41083;52.932;6.674;2023-05-07T01:03:07;12.20;99.90
55213;DHT22;41083;52.932;6.674;2023-05-07T01:05:33;12.30;99.90
55213;DHT22;41083;52.932;6.674;2023-05-07T01:07:59;12.30;99.90
55213;DHT22;41083;52.932;6.674;2023-05-07T01:10:25;12.20;99.90
55213;DHT22;41083;52.932;6.674;2023-05-07T01:12:51;12.20;99.90
55213;DHT22;41083;52.932;6.674;2023-05-07T01:15:18;12.10;99.90
55213;DHT22;41083;52.932;6.674;2023-05-07T01:17:44;12.10;99.90
55213;DHT22;41083;52.932;6.674;2023-05-07T01:20:11;12.10;99.90
55213;DHT22;41083;52.932;6.674;2023-05-07T01:22:38;12.10;99.90
55213;DHT22;41083;52.932;6.674;2023-05-07T01:25:04;12.00;99.90
55213;DHT22;41083;52.932;6.674;2023-05-07T01:27:30;12.00;99.90
55213;DHT22;41083;52.932;6.674;2023-05-07T01:29:56;12.00;99.90
55213;DHT22;41083;52.932;6.674;2023-05-07T01:32:32;12.10;99.90
55213;DHT22;41083;52.932;6.674;2023-05-07T01:35:00;12.00;99.90
55213;DHT22;41083;52.932;6.674;2023-05-07T01:37:26;12.00;99.90
55213;DHT22;41083;52.932;6.674;2023-05-07T01:39:52;11.90;99.90
55213;DHT22;41083;52.932;6.674;2023-05-07T01:42:19;11.90;99.90
55213;DHT22;41083;52.932;6.674;2023-05-07T01:44:44;11.90;99.90
55213;DHT22;41083;52.932;6.674;2023-05-07T01:47:10;11.90;99.90
55213;DHT22;41083;52.932;6.674;2023-05-07T01:49:37;11.90;99.90
55213;DHT22;41083;52.932;6.674;2023-05-07T01:52:02;11.90;99.90
55213;DHT22;41083;52.932;6.674;2023-05-07T01:54:28;12.00;99.90
55213;DHT22;41083;52.932;6.674;2023-05-07T01:56:56;11.90;99.90
55213;DHT22;41083;52.932;6.674;2023-05-07T01:59:22;11.90;99.90
55213;DHT22;41083;52.932;6.674;2023-05-07T02:01:48;11.80;99.90
55213;DHT22;41083;52.932;6.674;2023-05-07T02:04:13;11.80;99.90
55213;DHT22;41083;52.932;6.674;2023-05-07T02:06:39;11.80;99.90
55213;DHT22;41083;52.932;6.674;2023-05-07T02:09:05;11.70;99.90
55213;DHT22;41083;52.932;6.674;2023-05-07T02:11:30;11.70;99.90
55213;DHT22;41083;52.932;6.674;2023-05-07T02:13:56;11.80;99.90
55213;DHT22;41083;52.932;6.674;2023-05-07T02:16:22;11.70;99.90
55213;DHT22;41083;52.932;6.674;2023-05-07T02:18:48;11.60;99.90
55213;DHT22;41083;52.932;6.674;2023-05-07T02:21:14;11.60;99.90
55213;DHT22;41083;52.932;6.674;2023-05-07T02:23:39;11.70;99.90
55213;DHT22;41083;52.932;6.674;2023-05-07T02:26:05;11.60;99.90
55213;DHT22;41083;52.932;6.674;2023-05-07T02:28:31;11.60;99.90
55213;DHT22;41083;52.932;6.674;2023-05-07T02:30:57;11.60;99.90
55213;DHT22;41083;52.932;6.674;2023-05-07T02:33:24;11.60;99.90
55213;DHT22;41083;52.932;6.674;2023-05-07T02:35:50;11.60;99.90
55213;DHT22;41083;52.932;6.674;2023-05-07T02:38:17;11.60;99.90
55213;DHT22;41083;52.932;6.674;2023-05-07T02:40:43;11.60;99.90
55213;DHT22;41083;52.932;6.674;2023-05-07T02:43:08;11.60;99.90
55213;DHT22;41083;52.932;6.674;2023-05-07T02:45:34;11.50;99.90
55213;DHT22;41083;52.932;6.674;2023-05-07T02:48:00;11.50;99.90
55213;DHT22;41083;52.932;6.674;2023-05-07T02:50:25;11.50;99.90
55213;DHT22;41083;52.932;6.674;2023-05-07T02:52:52;11.50;99.90
55213;DHT22;41083;52.932;6.674;2023-05-07T02:55:18;11.40;99.90
55213;DHT22;41083;52.932;6.674;2023-05-07T02:57:44;11.40;99.90
55213;DHT22;41083;52.932;6.674;2023-05-07T03:00:16;11.40;99.90
55213;DHT22;41083;52.932;6.674;2023-05-07T03:02:45;11.40;99.90
55213;DHT22;41083;52.932;6.674;2023-05-07T03:05:11;11.40;99.90
55213;DHT22;41083;52.932;6.674;2023-05-07T03:07:38;11.30;99.90
55213;DHT22;41083;52.932;6.674;2023-05-07T03:10:04;11.30;99.90
55213;DHT22;41083;52.932;6.674;2023-05-07T03:12:30;11.30;99.90
55213;DHT22;41083;52.932;6.674;2023-05-07T03:14:56;11.30;99.90
55213;DHT22;41083;52.932;6.674;2023-05-07T03:17:22;11.30;99.90
55213;DHT22;41083;52.932;6.674;2023-05-07T03:19:47;11.30;99.90
55213;DHT22;41083;52.932;6.674;2023-05-07T03:22:14;11.20;99.90
55213;DHT22;41083;52.932;6.674;2023-05-07T03:24:39;11.30;99.90
55213;DHT22;41083;52.932;6.674;2023-05-07T03:27:05;11.30;99.90
55213;DHT22;41083;52.932;6.674;2023-05-07T03:29:30;11.30;99.90
55213;DHT22;41083;52.932;6.674;2023-05-07T03:31:56;11.20;99.90
55213;DHT22;41083;52.932;6.674;2023-05-07T03:34:21;11.30;99.90
55213;DHT22;41083;52.932;6.674;2023-05-07T03:36:51;11.30;99.90
55213;DHT22;41083;52.932;6.674;2023-05-07T03:39:16;11.20;99.90
55213;DHT22;41083;52.932;6.674;2023-05-07T03:41:42;11.20;99.90
55213;DHT22;41083;52.932;6.674;2023-05-07T03:44:08;11.20;99.90
55213;DHT22;41083;52.932;6.674;2023-05-07T03:46:34;11.30;99.90
55213;DHT22;41083;52.932;6.674;2023-05-07T03:48:59;11.20;99.90
55213;DHT22;41083;52.932;6.674;2023-05-07T03:51:25;11.10;99.90
55213;DHT22;41083;52.932;6.674;2023-05-07T03:53:51;11.10;99.90
55213;DHT22;41083;52.932;6.674;2023-05-07T03:56:18;11.20;99.90
55213;DHT22;41083;52.932;6.674;2023-05-07T03:58:44;11.10;99.90
55213;DHT22;41083;52.932;6.674;2023-05-07T04:01:10;11.10;99.90
55213;DHT22;41083;52.932;6.674;2023-05-07T04:03:36;11.10;99.90
55213;DHT22;41083;52.932;6.674;2023-05-07T04:06:01;11.10;99.90
55213;DHT22;41083;52.932;6.674;2023-05-07T04:08:27;11.10;99.90
55213;DHT22;41083;52.932;6.674;2023-05-07T04:10:56;11.10;99.90
55213;DHT22;41083;52.932;6.674;2023-05-07T04:13:22;11.00;99.90
55213;DHT22;41083;52.932;6.674;2023-05-07T04:15:48;11.00;99.90
55213;DHT22;41083;52.932;6.674;2023-05-07T04:18:14;11.10;99.90
55213;DHT22;41083;52.932;6.674;2023-05-07T04:20:40;11.00;99.90
55213;DHT22;41083;52.932;6.674;2023-05-07T04:23:06;11.00;99.90
55213;DHT22;41083;52.932;6.674;2023-05-07T04:25:32;11.00;99.90
55213;DHT22;41083;52.932;6.674;2023-05-07T04:27:58;11.00;99.90
55213;DHT22;41083;52.932;6.674;2023-05-07T04:30:24;11.10;99.90
55213;DHT22;41083;52.932;6.674;2023-05-07T04:32:50;11.10;99.90
55213;DHT22;41083;52.932;6.674;2023-05-07T04:35:15;11.10;99.90
55213;DHT22;41083;52.932;6.674;2023-05-07T04:37:41;11.10;99.90
55213;DHT22;41083;52.932;6.674;2023-05-07T04:40:07;11.10;99.90
55213;DHT22;41083;52.932;6.674;2023-05-07T04:42:32;11.10;99.90
55213;DHT22;41083;52.932;6.674;2023-05-07T04:44:58;11.10;99.90
55213;DHT22;41083;52.932;6.674;2023-05-07T04:47:24;11.10;99.90
55213;DHT22;41083;52.932;6.674;2023-05-07T04:49:49;11.10;99.90
55213;DHT22;41083;52.932;6.674;2023-05-07T04:52:15;11.10;99.90
55213;DHT22;41083;52.932;6.674;2023-05-07T04:54:41;11.10;99.90
55213;DHT22;41083;52.932;6.674;2023-05-07T04:57:06;11.10;99.90
55213;DHT22;41083;52.932;6.674;2023-05-07T04:59:32;11.10;99.90
55213;DHT22;41083;52.932;6.674;2023-05-07T05:01:58;11.10;99.90
55213;DHT22;41083;52.932;6.674;2023-05-07T05:04:23;11.00;99.90
55213;DHT22;41083;52.932;6.674;2023-05-07T05:06:49;11.00;99.90
55213;DHT22;41083;52.932;6.674;2023-05-07T05:09:15;11.10;99.90
55213;DHT22;41083;52.932;6.674;2023-05-07T05:11:41;11.00;99.90
55213;DHT22;41083;52.932;6.674;2023-05-07T05:14:07;11.00;99.90
55213;DHT22;41083;52.932;6.674;2023-05-07T05:16:32;11.00;99.90
55213;DHT22;41083;52.932;6.674;2023-05-07T05:18:59;11.00;99.90
55213;DHT22;41083;52.932;6.674;2023-05-07T05:21:24;11.00;99.90
55213;DHT22;41083;52.932;6.674;2023-05-07T05:23:50;11.00;99.90
55213;DHT22;41083;52.932;6.674;2023-05-07T05:26:16;11.00;99.90
55213;DHT22;41083;52.932;6.674;2023-05-07T05:28:41;11.00;99.90
55213;DHT22;41083;52.932;6.674;2023-05-07T05:31:07;11.00;99.90
55213;DHT22;41083;52.932;6.674;2023-05-07T05:33:32;10.90;99.90
55213;DHT22;41083;52.932;6.674;2023-05-07T05:35:58;11.00;99.90
55213;DHT22;41083;52.932;6.674;2023-05-07T05:38:24;11.00;99.90
55213;DHT22;41083;52.932;6.674;2023-05-07T05:40:49;11.00;99.90
55213;DHT22;41083;52.932;6.674;2023-05-07T05:43:15;11.00;99.90
55213;DHT22;41083;52.932;6.674;2023-05-07T05:45:40;11.00;99.90
55213;DHT22;41083;52.932;6.674;2023-05-07T05:48:06;11.00;99.90
55213;DHT22;41083;52.932;6.674;2023-05-07T05:50:31;11.00;99.90
55213;DHT22;41083;52.932;6.674;2023-05-07T05:52:57;11.00;99.90
55213;DHT22;41083;52.932;6.674;2023-05-07T05:55:23;11.00;99.90
55213;DHT22;41083;52.932;6.674;2023-05-07T05:57:49;11.10;99.90
55213;DHT22;41083;52.932;6.674;2023-05-07T06:00:16;11.10;99.90
55213;DHT22;41083;52.932;6.674;2023-05-07T06:02:42;11.10;99.90
55213;DHT22;41083;52.932;6.674;2023-05-07T06:05:08;11.10;99.90
55213;DHT22;41083;52.932;6.674;2023-05-07T06:07:34;11.10;99.90
55213;DHT22;41083;52.932;6.674;2023-05-07T06:10:00;11.10;99.90
55213;DHT22;41083;52.932;6.674;2023-05-07T06:12:26;11.20;99.90
55213;DHT22;41083;52.932;6.674;2023-05-07T06:14:52;11.20;99.90
55213;DHT22;41083;52.932;6.674;2023-05-07T06:17:18;11.30;99.90
55213;DHT22;41083;52.932;6.674;2023-05-07T06:19:44;11.30;99.90
55213;DHT22;41083;52.932;6.674;2023-05-07T06:22:09;11.30;99.90
55213;DHT22;41083;52.932;6.674;2023-05-07T06:24:35;11.30;99.90
55213;DHT22;41083;52.932;6.674;2023-05-07T06:27:00;11.30;99.90
55213;DHT22;41083;52.932;6.674;2023-05-07T06:29:26;11.30;99.90
55213;DHT22;41083;52.932;6.674;2023-05-07T06:31:55;11.40;99.90
55213;DHT22;41083;52.932;6.674;2023-05-07T06:34:21;11.40;99.90
55213;DHT22;41083;52.932;6.674;2023-05-07T06:36:46;11.40;99.90
55213;DHT22;41083;52.932;6.674;2023-05-07T06:39:12;11.40;99.90
55213;DHT22;41083;52.932;6.674;2023-05-07T06:41:37;11.40;99.90
55213;DHT22;41083;52.932;6.674;2023-05-07T06:44:04;11.40;99.90
55213;DHT22;41083;52.932;6.674;2023-05-07T06:46:30;11.50;99.90
55213;DHT22;41083;52.932;6.674;2023-05-07T06:48:56;11.50;99.90
55213;DHT22;41083;52.932;6.674;2023-05-07T06:51:22;11.50;99.90
55213;DHT22;41083;52.932;6.674;2023-05-07T06:53:48;11.50;99.90
55213;DHT22;41083;52.932;6.674;2023-05-07T06:56:14;11.50;99.90
55213;DHT22;41083;52.932;6.674;2023-05-07T06:58:39;11.50;99.90
55213;DHT22;41083;52.932;6.674;2023-05-07T07:01:05;11.50;99.90
55213;DHT22;41083;52.932;6.674;2023-05-07T07:03:31;11.50;99.90
55213;DHT22;41083;52.932;6.674;2023-05-07T07:05:56;11.60;99.90
55213;DHT22;41083;52.932;6.674;2023-05-07T07:08:22;11.60;99.90
55213;DHT22;41083;52.932;6.674;2023-05-07T07:10:48;11.60;99.90
55213;DHT22;41083;52.932;6.674;2023-05-07T07:13:14;11.60;99.90
55213;DHT22;41083;52.932;6.674;2023-05-07T07:15:39;11.70;99.90
55213;DHT22;41083;52.932;6.674;2023-05-07T07:18:05;11.70;99.90
55213;DHT22;41083;52.932;6.674;2023-05-07T07:20:31;11.70;99.90
55213;DHT22;41083;52.932;6.674;2023-05-07T07:22:57;11.80;99.90
55213;DHT22;41083;52.932;6.674;2023-05-07T07:25:22;11.80;99.90
55213;DHT22;41083;52.932;6.674;2023-05-07T07:27:49;11.80;99.90
55213;DHT22;41083;52.932;6.674;2023-05-07T07:30:15;11.80;99.90
55213;DHT22;41083;52.932;6.674;2023-05-07T07:32:41;11.80;99.90
55213;DHT22;41083;52.932;6.674;2023-05-07T07:35:07;11.80;99.90
55213;DHT22;41083;52.932;6.674;2023-05-07T07:37:32;11.80;99.90
55213;DHT22;41083;52.932;6.674;2023-05-07T07:39:58;11.80;99.90
55213;DHT22;41083;52.932;6.674;2023-05-07T07:42:23;11.80;99.90
55213;DHT22;41083;52.932;6.674;2023-05-07T07:44:49;11.90;99.90
55213;DHT22;41083;52.932;6.674;2023-05-07T07:47:15;11.90;99.90
55213;DHT22;41083;52.932;6.674;2023-05-07T07:49:41;11.90;99.90
55213;DHT22;41083;52.932;6.674;2023-05-07T07:52:06;12.00;99.90
55213;DHT22;41083;52.932;6.674;2023-05-07T07:54:32;12.00;99.90
55213;DHT22;41083;52.932;6.674;2023-05-07T07:56:58;12.00;99.90
55213;DHT22;41083;52.932;6.674;2023-05-07T07:59:23;12.00;99.90
55213;DHT22;41083;52.932;6.674;2023-05-07T08:01:49;12.10;99.90
55213;DHT22;41083;52.932;6.674;2023-05-07T08:04:15;12.10;99.90
55213;DHT22;41083;52.932;6.674;2023-05-07T08:06:41;12.10;99.90
55213;DHT22;41083;52.932;6.674;2023-05-07T08:09:07;12.20;99.90
55213;DHT22;41083;52.932;6.674;2023-05-07T08:11:33;12.20;99.90
55213;DHT22;41083;52.932;6.674;2023-05-07T08:13:59;12.20;99.90
55213;DHT22;41083;52.932;6.674;2023-05-07T08:16:25;12.20;99.90
55213;DHT22;41083;52.932;6.674;2023-05-07T08:18:51;12.20;99.90
55213;DHT22;41083;52.932;6.674;2023-05-07T08:21:16;12.30;99.90
55213;DHT22;41083;52.932;6.674;2023-05-07T08:23:42;12.30;99.90
55213;DHT22;41083;52.932;6.674;2023-05-07T08:26:08;12.30;99.90
55213;DHT22;41083;52.932;6.674;2023-05-07T08:28:34;12.40;99.90
55213;DHT22;41083;52.932;6.674;2023-05-07T08:31:00;12.40;99.90
55213;DHT22;41083;52.932;6.674;2023-05-07T08:33:26;12.50;99.90
55213;DHT22;41083;52.932;6.674;2023-05-07T08:35:52;12.50;99.90
55213;DHT22;41083;52.932;6.674;2023-05-07T08:38:18;12.50;99.90
55213;DHT22;41083;52.932;6.674;2023-05-07T08:40:43;12.50;99.90
55213;DHT22;41083;52.932;6.674;2023-05-07T08:43:12;12.50;99.90
55213;DHT22;41083;52.932;6.674;2023-05-07T08:45:39;12.60;99.90
55213;DHT22;41083;52.932;6.674;2023-05-07T08:48:09;12.60;99.90
55213;DHT22;41083;52.932;6.674;2023-05-07T08:50:36;12.60;99.90
55213;DHT22;41083;52.932;6.674;2023-05-07T08:53:05;12.60;99.90
55213;DHT22;41083;52.932;6.674;2023-05-07T08:55:31;12.70;99.90
55213;DHT22;41083;52.932;6.674;2023-05-07T08:57:56;12.80;99.90
55213;DHT22;41083;52.932;6.674;2023-05-07T09:00:22;12.90;99.90
55213;DHT22;41083;52.932;6.674;2023-05-07T09:02:48;12.90;99.90
55213;DHT22;41083;52.932;6.674;2023-05-07T09:05:14;13.00;99.90
55213;DHT22;41083;52.932;6.674;2023-05-07T09:07:39;13.10;99.90
55213;DHT22;41083;52.932;6.674;2023-05-07T09:10:05;13.10;99.90
55213;DHT22;41083;52.932;6.674;2023-05-07T09:12:31;13.20;99.90
55213;DHT22;41083;52.932;6.674;2023-05-07T09:14:59;13.20;99.90
55213;DHT22;41083;52.932;6.674;2023-05-07T09:17:25;13.20;99.90
55213;DHT22;41083;52.932;6.674;2023-05-07T09:19:50;13.30;99.90
55213;DHT22;41083;52.932;6.674;2023-05-07T09:22:16;13.30;99.90
55213;DHT22;41083;52.932;6.674;2023-05-07T09:24:50;13.30;99.90
55213;DHT22;41083;52.932;6.674;2023-05-07T09:27:17;13.40;99.90
55213;DHT22;41083;52.932;6.674;2023-05-07T09:29:44;13.50;99.90
55213;DHT22;41083;52.932;6.674;2023-05-07T09:32:10;13.60;99.90
55213;DHT22;41083;52.932;6.674;2023-05-07T09:34:36;13.60;99.90
55213;DHT22;41083;52.932;6.674;2023-05-07T09:37:06;13.70;99.90
55213;DHT22;41083;52.932;6.674;2023-05-07T09:39:47;13.70;99.90
55213;DHT22;41083;52.932;6.674;2023-05-07T09:42:13;13.80;99.90
55213;DHT22;41083;52.932;6.674;2023-05-07T09:44:43;13.80;99.90
55213;DHT22;41083;52.932;6.674;2023-05-07T09:47:11;13.90;99.90
55213;DHT22;41083;52.932;6.674;2023-05-07T09:49:40;13.90;99.90
55213;DHT22;41083;52.932;6.674;2023-05-07T09:52:07;13.90;99.90
55213;DHT22;41083;52.932;6.674;2023-05-07T09:54:36;14.00;99.90
55213;DHT22;41083;52.932;6.674;2023-05-07T09:57:04;14.00;99.90
55213;DHT22;41083;52.932;6.674;2023-05-07T09:59:34;14.00;99.90
55213;DHT22;41083;52.932;6.674;2023-05-07T10:02:01;14.00;99.90
55213;DHT22;41083;52.932;6.674;2023-05-07T10:04:27;14.10;99.90
55213;DHT22;41083;52.932;6.674;2023-05-07T10:06:53;14.10;99.90
55213;DHT22;41083;52.932;6.674;2023-05-07T10:09:21;14.20;99.90
55213;DHT22;41083;52.932;6.674;2023-05-07T10:11:48;14.30;99.90
55213;DHT22;41083;52.932;6.674;2023-05-07T10:14:14;14.30;99.90
55213;DHT22;41083;52.932;6.674;2023-05-07T10:16:40;14.30;99.90
55213;DHT22;41083;52.932;6.674;2023-05-07T10:19:07;14.30;99.90
55213;DHT22;41083;52.932;6.674;2023-05-07T10:21:36;14.30;99.90
55213;DHT22;41083;52.932;6.674;2023-05-07T10:24:12;14.30;99.90
55213;DHT22;41083;52.932;6.674;2023-05-07T10:26:45;14.40;99.90
55213;DHT22;41083;52.932;6.674;2023-05-07T10:32:08;14.40;99.90
55213;DHT22;41083;52.932;6.674;2023-05-07T10:34:39;14.50;99.90
55213;DHT22;41083;52.932;6.674;2023-05-07T10:37:06;14.50;99.90
55213;DHT22;41083;52.932;6.674;2023-05-07T10:39:32;14.50;99.90
55213;DHT22;41083;52.932;6.674;2023-05-07T10:42:08;14.50;99.90
55213;DHT22;41083;52.932;6.674;2023-05-07T10:44:33;14.60;99.90
55213;DHT22;41083;52.932;6.674;2023-05-07T10:47:11;14.60;99.90
55213;DHT22;41083;52.932;6.674;2023-05-07T10:52:31;14.60;99.90
55213;DHT22;41083;52.932;6.674;2023-05-07T10:57:42;14.70;99.90
55213;DHT22;41083;52.932;6.674;2023-05-07T11:03:06;14.80;99.90
55213;DHT22;41083;52.932;6.674;2023-05-07T11:05:32;14.80;99.90
55213;DHT22;41083;52.932;6.674;2023-05-07T11:08:00;14.90;99.90
55213;DHT22;41083;52.932;6.674;2023-05-07T11:10:55;14.90;99.90
55213;DHT22;41083;52.932;6.674;2023-05-07T11:13:56;14.90;99.90
55213;DHT22;41083;52.932;6.674;2023-05-07T11:16:23;15.00;99.90
55213;DHT22;41083;52.932;6.674;2023-05-07T11:18:51;15.10;99.90
55213;DHT22;41083;52.932;6.674;2023-05-07T11:21:32;15.10;99.90
55213;DHT22;41083;52.932;6.674;2023-05-07T11:23:59;15.20;99.90
55213;DHT22;41083;52.932;6.674;2023-05-07T11:26:26;15.20;99.90
55213;DHT22;41083;52.932;6.674;2023-05-07T11:28:52;15.20;99.90
55213;DHT22;41083;52.932;6.674;2023-05-07T11:31:24;15.30;99.90
55213;DHT22;41083;52.932;6.674;2023-05-07T11:33:49;15.40;99.90
55213;DHT22;41083;52.932;6.674;2023-05-07T11:36:15;15.40;99.90
55213;DHT22;41083;52.932;6.674;2023-05-07T11:38:41;15.50;99.90
55213;DHT22;41083;52.932;6.674;2023-05-07T11:41:07;15.60;99.90
55213;DHT22;41083;52.932;6.674;2023-05-07T11:43:33;15.70;99.90
55213;DHT22;41083;52.932;6.674;2023-05-07T11:46:11;15.70;99.90
55213;DHT22;41083;52.932;6.674;2023-05-07T11:48:38;15.80;99.90
55213;DHT22;41083;52.932;6.674;2023-05-07T11:51:05;15.80;99.90
55213;DHT22;41083;52.932;6.674;2023-05-07T11:53:39;15.90;99.90
55213;DHT22;41083;52.932;6.674;2023-05-07T11:56:13;15.90;99.90
55213;DHT22;41083;52.932;6.674;2023-05-07T11:58:40;15.90;99.90
55213;DHT22;41083;52.932;6.674;2023-05-07T12:01:08;16.00;99.90
55213;DHT22;41083;52.932;6.674;2023-05-07T12:03:35;16.00;99.90
55213;DHT22;41083;52.932;6.674;2023-05-07T12:06:03;16.10;99.90
55213;DHT22;41083;52.932;6.674;2023-05-07T12:08:30;16.20;99.90
55213;DHT22;41083;52.932;6.674;2023-05-07T12:10:56;16.20;99.90
55213;DHT22;41083;52.932;6.674;2023-05-07T12:13:25;16.30;99.90
55213;DHT22;41083;52.932;6.674;2023-05-07T12:15:55;16.30;99.90
55213;DHT22;41083;52.932;6.674;2023-05-07T12:18:22;16.40;99.90
55213;DHT22;41083;52.932;6.674;2023-05-07T12:20:48;16.40;99.90
55213;DHT22;41083;52.932;6.674;2023-05-07T12:23:15;16.40;99.90
55213;DHT22;41083;52.932;6.674;2023-05-07T12:25:42;16.50;99.90
55213;DHT22;41083;52.932;6.674;2023-05-07T12:28:18;16.50;99.90
55213;DHT22;41083;52.932;6.674;2023-05-07T12:30:46;16.60;99.90
55213;DHT22;41083;52.932;6.674;2023-05-07T12:33:16;16.60;99.90
55213;DHT22;41083;52.932;6.674;2023-05-07T12:35:42;16.60;99.90
55213;DHT22;41083;52.932;6.674;2023-05-07T12:38:16;16.60;99.90
55213;DHT22;41083;52.932;6.674;2023-05-07T12:40:50;16.60;99.90
55213;DHT22;41083;52.932;6.674;2023-05-07T12:43:25;16.60;99.90
55213;DHT22;41083;52.932;6.674;2023-05-07T12:45:59;16.60;99.90
55213;DHT22;41083;52.932;6.674;2023-05-07T12:48:25;16.60;99.90
55213;DHT22;41083;52.932;6.674;2023-05-07T12:50:56;16.50;99.90
55213;DHT22;41083;52.932;6.674;2023-05-07T12:53:25;16.60;99.90
55213;DHT22;41083;52.932;6.674;2023-05-07T12:55:53;16.60;99.90
55213;DHT22;41083;52.932;6.674;2023-05-07T12:58:23;16.60;99.90
55213;DHT22;41083;52.932;6.674;2023-05-07T13:00:50;16.60;99.90
55213;DHT22;41083;52.932;6.674;2023-05-07T13:03:34;16.60;99.90
55213;DHT22;41083;52.932;6.674;2023-05-07T13:06:01;16.60;99.90
55213;DHT22;41083;52.932;6.674;2023-05-07T13:08:31;16.70;99.90
55213;DHT22;41083;52.932;6.674;2023-05-07T13:10:59;16.70;99.90
55213;DHT22;41083;52.932;6.674;2023-05-07T13:13:25;16.70;99.90
55213;DHT22;41083;52.932;6.674;2023-05-07T13:15:51;16.70;99.90
55213;DHT22;41083;52.932;6.674;2023-05-07T13:18:17;16.70;99.90
55213;DHT22;41083;52.932;6.674;2023-05-07T13:20:43;16.70;99.90
55213;DHT22;41083;52.932;6.674;2023-05-07T13:23:08;16.70;99.90
55213;DHT22;41083;52.932;6.674;2023-05-07T13:25:34;16.80;99.90
55213;DHT22;41083;52.932;6.674;2023-05-07T13:28:00;16.80;99.90
55213;DHT22;41083;52.932;6.674;2023-05-07T13:30:25;16.90;99.90
55213;DHT22;41083;52.932;6.674;2023-05-07T13:32:53;16.90;99.90
55213;DHT22;41083;52.932;6.674;2023-05-07T13:35:20;17.00;99.90
55213;DHT22;41083;52.932;6.674;2023-05-07T13:37:46;17.00;99.90
55213;DHT22;41083;52.932;6.674;2023-05-07T13:40:13;17.00;99.90
55213;DHT22;41083;52.932;6.674;2023-05-07T13:42:39;17.00;99.90
55213;DHT22;41083;52.932;6.674;2023-05-07T13:45:05;17.10;99.90
55213;DHT22;41083;52.932;6.674;2023-05-07T13:47:31;17.10;99.90
55213;DHT22;41083;52.932;6.674;2023-05-07T13:49:56;17.10;99.90
55213;DHT22;41083;52.932;6.674;2023-05-07T13:52:22;17.20;99.90
55213;DHT22;41083;52.932;6.674;2023-05-07T13:54:48;17.20;99.90
55213;DHT22;41083;52.932;6.674;2023-05-07T13:57:13;17.20;99.90
55213;DHT22;41083;52.932;6.674;2023-05-07T13:59:40;17.10;99.90
55213;DHT22;41083;52.932;6.674;2023-05-07T14:02:06;17.20;99.90
55213;DHT22;41083;52.932;6.674;2023-05-07T14:04:31;17.20;99.90
55213;DHT22;41083;52.932;6.674;2023-05-07T14:06:57;17.20;99.90
55213;DHT22;41083;52.932;6.674;2023-05-07T14:09:23;17.20;99.90
55213;DHT22;41083;52.932;6.674;2023-05-07T14:11:48;17.20;99.90
55213;DHT22;41083;52.932;6.674;2023-05-07T14:14:17;17.20;99.90
55213;DHT22;41083;52.932;6.674;2023-05-07T14:16:43;17.20;99.90
55213;DHT22;41083;52.932;6.674;2023-05-07T14:19:08;17.20;99.90
55213;DHT22;41083;52.932;6.674;2023-05-07T14:21:34;17.20;99.90
55213;DHT22;41083;52.932;6.674;2023-05-07T14:23:59;17.20;99.90
55213;DHT22;41083;52.932;6.674;2023-05-07T14:26:25;17.10;99.90
55213;DHT22;41083;52.932;6.674;2023-05-07T14:28:52;17.00;99.90
55213;DHT22;41083;52.932;6.674;2023-05-07T14:31:20;17.00;99.90
55213;DHT22;41083;52.932;6.674;2023-05-07T14:33:46;17.00;99.90
55213;DHT22;41083;52.932;6.674;2023-05-07T14:36:11;16.90;99.90
55213;DHT22;41083;52.932;6.674;2023-05-07T14:38:37;16.90;99.90
55213;DHT22;41083;52.932;6.674;2023-05-07T14:41:03;16.90;99.90
55213;DHT22;41083;52.932;6.674;2023-05-07T14:43:29;16.90;99.90
55213;DHT22;41083;52.932;6.674;2023-05-07T14:45:54;16.90;99.90
55213;DHT22;41083;52.932;6.674;2023-05-07T14:48:20;16.90;99.90
55213;DHT22;41083;52.932;6.674;2023-05-07T14:50:49;16.90;99.90
55213;DHT22;41083;52.932;6.674;2023-05-07T14:53:15;16.80;99.90
55213;DHT22;41083;52.932;6.674;2023-05-07T14:55:41;17.00;99.90
55213;DHT22;41083;52.932;6.674;2023-05-07T14:58:07;17.00;99.90
55213;DHT22;41083;52.932;6.674;2023-05-07T15:00:33;17.00;99.90
55213;DHT22;41083;52.932;6.674;2023-05-07T15:03:05;17.00;99.90
55213;DHT22;41083;52.932;6.674;2023-05-07T15:05:31;17.00;99.90
55213;DHT22;41083;52.932;6.674;2023-05-07T15:07:57;17.10;99.90
55213;DHT22;41083;52.932;6.674;2023-05-07T15:10:23;17.00;99.90
55213;DHT22;41083;52.932;6.674;2023-05-07T15:12:48;17.00;99.90
55213;DHT22;41083;52.932;6.674;2023-05-07T15:15:14;17.00;99.90
55213;DHT22;41083;52.932;6.674;2023-05-07T15:17:40;17.00;99.90
55213;DHT22;41083;52.932;6.674;2023-05-07T15:20:06;17.00;99.90
55213;DHT22;41083;52.932;6.674;2023-05-07T15:22:32;17.00;99.90
55213;DHT22;41083;52.932;6.674;2023-05-07T15:24:58;17.20;99.90
55213;DHT22;41083;52.932;6.674;2023-05-07T15:27:24;17.20;99.90
55213;DHT22;41083;52.932;6.674;2023-05-07T15:29:50;17.30;99.90
55213;DHT22;41083;52.932;6.674;2023-05-07T15:32:16;17.30;99.90
55213;DHT22;41083;52.932;6.674;2023-05-07T15:34:41;17.20;99.90
55213;DHT22;41083;52.932;6.674;2023-05-07T15:37:07;17.20;99.90
55213;DHT22;41083;52.932;6.674;2023-05-07T15:39:32;17.30;99.90